Portada
METAR-TAF:

METAR-TAF

Aeroports :

Txengdu, Xina

latitud: 30-40N, longitud: 104-01E, altitud: 508 m

Observació

L'informe es va fer fa 37 minuts, a les 12:00 UTC
Vent 2 kt amb direcció variable
Temperatura 23°C
Humitat 89%
Pressió 1009 hPa
Visibilitat: 6000 m
Escasses núvols a una alçada de 3300 ft, Cumulus congestus.
Núvols disperses a una alçada de 3300 ft
xàfecs de pluja

METAR: ZUUU 171200Z VRB01MPS 6000 -SHRA FEW033TCU SCT033 23/21 Q1009 NOSIG

Hora: 20:37 (12:37 UTC)

Pronòstic

L'informe es va fer fa 4 hores i 33 minuts, a les 08:04 UTC
Pronòstic vàlid del 17 a les 12 UTC al 18 a les 12 UTC
Vent 6 kt del Sud/Sud-Oest
Visibilitat: 5000 m
Núvols disperses a una alçada de 4000 ft
boirina
Temporalment
l' 17 a les 12 UTC al 17 a les 18 UTC
xàfecs de pluja

TAF: ZUUU 170804Z 1712/1812 20003MPS 5000 BR SCT040 TX26/1808Z TN21/1722Z TEMPO 1712/1718 -SHRA

Observacions i pronòstics meteorològics de més de 4000 aeroports (METAR i TAF).

Les estacions disponibles són els punts grocs i vermells al mapa.

Posi el ratolí al punt desitjat per veure el nom de l'estació.

Feu clic per veure les observacions i els pronòstics meteorològics.

Per canviar el mapa: feu clic els botons verds amb una creu de color negre per apropar; al botó verd amb un guió per allunyar la imatge; o en les fletxes verdes per a mapes adjacents.


METAR-TAF: